sensor_id;sensor_type;location;lat;lon;timestamp;pressure;altitude;pressure_sealevel;temperature;humidity
2549;BME280;1284;53.520;10.248;2024-03-08T00:01:56;101705.44;;;5.40;80.44
2549;BME280;1284;53.520;10.248;2024-03-08T00:04:21;101699.34;;;5.34;81.32
2549;BME280;1284;53.520;10.248;2024-03-08T00:06:47;101692.34;;;5.38;81.04
2549;BME280;1284;53.520;10.248;2024-03-08T00:09:13;101692.94;;;5.35;80.31
2549;BME280;1284;53.520;10.248;2024-03-08T00:11:39;101687.59;;;5.35;80.41
2549;BME280;1284;53.520;10.248;2024-03-08T00:14:06;101688.56;;;5.26;80.94
2549;BME280;1284;53.520;10.248;2024-03-08T00:16:33;101688.84;;;5.11;81.78
2549;BME280;1284;53.520;10.248;2024-03-08T00:18:59;101688.66;;;5.21;81.48
2549;BME280;1284;53.520;10.248;2024-03-08T00:21:25;101684.00;;;5.13;81.84
2549;BME280;1284;53.520;10.248;2024-03-08T00:23:52;101685.94;;;5.07;81.95
2549;BME280;1284;53.520;10.248;2024-03-08T00:26:20;101686.97;;;5.25;81.43
2549;BME280;1284;53.520;10.248;2024-03-08T00:28:48;101688.53;;;5.12;81.44
2549;BME280;1284;53.520;10.248;2024-03-08T00:31:14;101685.03;;;4.98;82.20
2549;BME280;1284;53.520;10.248;2024-03-08T00:33:45;101680.84;;;4.92;83.04
2549;BME280;1284;53.520;10.248;2024-03-08T00:36:10;101680.84;;;4.92;82.70
2549;BME280;1284;53.520;10.248;2024-03-08T00:38:36;101689.63;;;5.11;82.21
2549;BME280;1284;53.520;10.248;2024-03-08T00:41:02;101683.72;;;4.96;82.03
2549;BME280;1284;53.520;10.248;2024-03-08T00:43:28;101682.97;;;4.95;82.24
2549;BME280;1284;53.520;10.248;2024-03-08T00:45:55;101686.13;;;4.79;82.51
2549;BME280;1284;53.520;10.248;2024-03-08T00:48:23;101685.84;;;4.80;82.78
2549;BME280;1284;53.520;10.248;2024-03-08T00:50:49;101677.78;;;4.85;82.84
2549;BME280;1284;53.520;10.248;2024-03-08T00:53:15;101679.06;;;4.88;82.63
2549;BME280;1284;53.520;10.248;2024-03-08T00:55:42;101676.56;;;4.78;81.94
2549;BME280;1284;53.520;10.248;2024-03-08T00:58:08;101667.66;;;4.82;82.90
2549;BME280;1284;53.520;10.248;2024-03-08T01:00:34;101669.78;;;4.85;82.94
2549;BME280;1284;53.520;10.248;2024-03-08T01:03:00;101668.25;;;4.79;82.78
2549;BME280;1284;53.520;10.248;2024-03-08T01:05:26;101666.91;;;4.82;82.31
2549;BME280;1284;53.520;10.248;2024-03-08T01:07:53;101667.00;;;4.90;82.06
2549;BME280;1284;53.520;10.248;2024-03-08T01:10:19;101669.97;;;4.89;82.14
2549;BME280;1284;53.520;10.248;2024-03-08T01:12:45;101665.00;;;4.82;82.06
2549;BME280;1284;53.520;10.248;2024-03-08T01:15:11;101656.47;;;4.48;83.73
2549;BME280;1284;53.520;10.248;2024-03-08T01:17:37;101655.72;;;4.61;83.10
2549;BME280;1284;53.520;10.248;2024-03-08T01:20:04;101644.50;;;4.45;83.29
2549;BME280;1284;53.520;10.248;2024-03-08T01:22:30;101642.13;;;4.44;83.95
2549;BME280;1284;53.520;10.248;2024-03-08T01:24:56;101647.31;;;4.54;83.68
2549;BME280;1284;53.520;10.248;2024-03-08T01:27:23;101643.50;;;4.60;82.93
2549;BME280;1284;53.520;10.248;2024-03-08T01:29:50;101627.22;;;4.43;83.97
2549;BME280;1284;53.520;10.248;2024-03-08T01:32:16;101624.63;;;4.56;83.91
2549;BME280;1284;53.520;10.248;2024-03-08T01:34:42;101625.56;;;4.47;83.59
2549;BME280;1284;53.520;10.248;2024-03-08T01:37:10;101622.44;;;4.40;84.39
2549;BME280;1284;53.520;10.248;2024-03-08T01:39:36;101617.47;;;4.52;83.36
2549;BME280;1284;53.520;10.248;2024-03-08T01:42:03;101616.97;;;4.50;83.14
2549;BME280;1284;53.520;10.248;2024-03-08T01:44:29;101604.28;;;4.42;82.92
2549;BME280;1284;53.520;10.248;2024-03-08T01:46:56;101603.38;;;4.33;84.04
2549;BME280;1284;53.520;10.248;2024-03-08T01:49:22;101599.47;;;4.44;83.88
2549;BME280;1284;53.520;10.248;2024-03-08T01:51:50;101597.81;;;4.29;84.60
2549;BME280;1284;53.520;10.248;2024-03-08T01:54:16;101596.81;;;4.25;84.54
2549;BME280;1284;53.520;10.248;2024-03-08T01:56:44;101594.66;;;4.27;84.66
2549;BME280;1284;53.520;10.248;2024-03-08T01:59:10;101593.22;;;4.35;85.04
2549;BME280;1284;53.520;10.248;2024-03-08T02:01:36;101589.44;;;4.36;83.90
2549;BME280;1284;53.520;10.248;2024-03-08T02:04:02;101580.53;;;4.27;84.44
2549;BME280;1284;53.520;10.248;2024-03-08T02:06:28;101579.16;;;4.11;85.13
2549;BME280;1284;53.520;10.248;2024-03-08T02:08:55;101576.06;;;4.04;85.94
2549;BME280;1284;53.520;10.248;2024-03-08T02:11:21;101584.94;;;4.18;85.59
2549;BME280;1284;53.520;10.248;2024-03-08T02:13:49;101583.34;;;4.17;85.36
2549;BME280;1284;53.520;10.248;2024-03-08T02:16:20;101582.69;;;4.06;85.59
2549;BME280;1284;53.520;10.248;2024-03-08T02:18:46;101579.78;;;4.03;86.08
2549;BME280;1284;53.520;10.248;2024-03-08T02:21:12;101577.63;;;4.05;86.00
2549;BME280;1284;53.520;10.248;2024-03-08T02:23:38;101569.59;;;4.10;85.03
2549;BME280;1284;53.520;10.248;2024-03-08T02:26:05;101573.19;;;4.19;85.81
2549;BME280;1284;53.520;10.248;2024-03-08T02:28:34;101569.50;;;4.15;85.46
2549;BME280;1284;53.520;10.248;2024-03-08T02:31:00;101568.72;;;4.33;84.57
2549;BME280;1284;53.520;10.248;2024-03-08T02:33:28;101577.66;;;4.23;84.62
2549;BME280;1284;53.520;10.248;2024-03-08T02:35:55;101578.66;;;4.09;85.42
2549;BME280;1284;53.520;10.248;2024-03-08T02:38:22;101571.81;;;4.03;86.03
2549;BME280;1284;53.520;10.248;2024-03-08T02:40:51;101563.59;;;3.99;85.77
2549;BME280;1284;53.520;10.248;2024-03-08T02:43:19;101563.53;;;4.04;86.00
2549;BME280;1284;53.520;10.248;2024-03-08T02:45:45;101573.47;;;4.17;85.17
2549;BME280;1284;53.520;10.248;2024-03-08T02:48:12;101561.00;;;4.13;85.46
2549;BME280;1284;53.520;10.248;2024-03-08T02:50:39;101570.00;;;4.17;85.12
2549;BME280;1284;53.520;10.248;2024-03-08T02:53:06;101564.19;;;4.15;85.18
2549;BME280;1284;53.520;10.248;2024-03-08T02:55:32;101554.03;;;3.98;85.67
2549;BME280;1284;53.520;10.248;2024-03-08T02:57:59;101556.31;;;4.05;85.76
2549;BME280;1284;53.520;10.248;2024-03-08T03:00:25;101551.50;;;4.07;85.40
2549;BME280;1284;53.520;10.248;2024-03-08T03:02:52;101540.41;;;4.00;85.40
2549;BME280;1284;53.520;10.248;2024-03-08T03:05:23;101553.38;;;3.88;86.12
2549;BME280;1284;53.520;10.248;2024-03-08T03:07:50;101552.19;;;3.99;85.78
2549;BME280;1284;53.520;10.248;2024-03-08T03:10:19;101541.56;;;3.94;85.74
2549;BME280;1284;53.520;10.248;2024-03-08T03:12:46;101547.41;;;3.77;86.92
2549;BME280;1284;53.520;10.248;2024-03-08T03:15:12;101546.59;;;3.77;86.91
2549;BME280;1284;53.520;10.248;2024-03-08T03:17:40;101550.22;;;3.86;86.59
2549;BME280;1284;53.520;10.248;2024-03-08T03:20:07;101549.66;;;3.89;86.58
2549;BME280;1284;53.520;10.248;2024-03-08T03:22:38;101542.16;;;3.91;86.42
2549;BME280;1284;53.520;10.248;2024-03-08T03:25:07;101539.06;;;4.02;85.83
2549;BME280;1284;53.520;10.248;2024-03-08T03:27:33;101545.16;;;4.03;84.90
2549;BME280;1284;53.520;10.248;2024-03-08T03:30:01;101544.81;;;3.91;86.17
2549;BME280;1284;53.520;10.248;2024-03-08T03:32:49;101540.28;;;3.91;85.56
2549;BME280;1284;53.520;10.248;2024-03-08T03:35:17;101541.06;;;3.92;85.72
2549;BME280;1284;53.520;10.248;2024-03-08T03:37:44;101542.16;;;3.91;85.27
2549;BME280;1284;53.520;10.248;2024-03-08T03:40:17;101540.63;;;3.66;86.91
2549;BME280;1284;53.520;10.248;2024-03-08T03:42:46;101547.47;;;3.72;86.60
2549;BME280;1284;53.520;10.248;2024-03-08T03:45:13;101530.03;;;3.80;85.96
2549;BME280;1284;53.520;10.248;2024-03-08T03:47:42;101539.56;;;3.86;86.56
2549;BME280;1284;53.520;10.248;2024-03-08T03:50:08;101544.66;;;3.82;86.54
2549;BME280;1284;53.520;10.248;2024-03-08T03:52:35;101539.94;;;3.79;86.75
2549;BME280;1284;53.520;10.248;2024-03-08T03:55:02;101542.00;;;3.82;85.80
2549;BME280;1284;53.520;10.248;2024-03-08T03:57:30;101536.03;;;3.90;85.59
2549;BME280;1284;53.520;10.248;2024-03-08T03:59:56;101541.69;;;3.65;86.37
2549;BME280;1284;53.520;10.248;2024-03-08T04:02:25;101535.44;;;3.75;86.41
2549;BME280;1284;53.520;10.248;2024-03-08T04:04:54;101541.19;;;3.82;85.98
2549;BME280;1284;53.520;10.248;2024-03-08T04:07:21;101541.28;;;3.77;86.31
2549;BME280;1284;53.520;10.248;2024-03-08T04:09:47;101542.63;;;3.74;85.95
2549;BME280;1284;53.520;10.248;2024-03-08T04:12:12;101536.69;;;3.82;86.23
2549;BME280;1284;53.520;10.248;2024-03-08T04:14:42;101542.00;;;3.82;85.65
2549;BME280;1284;53.520;10.248;2024-03-08T04:17:08;101530.78;;;3.85;85.69
2549;BME280;1284;53.520;10.248;2024-03-08T04:19:35;101544.88;;;3.86;84.95
2549;BME280;1284;53.520;10.248;2024-03-08T04:22:01;101540.13;;;3.83;85.56
2549;BME280;1284;53.520;10.248;2024-03-08T04:24:27;101537.53;;;3.78;85.71
2549;BME280;1284;53.520;10.248;2024-03-08T04:26:54;101534.16;;;3.72;85.70
2549;BME280;1284;53.520;10.248;2024-03-08T04:29:20;101525.16;;;3.68;86.20
2549;BME280;1284;53.520;10.248;2024-03-08T04:31:47;101526.53;;;3.65;85.72
2549;BME280;1284;53.520;10.248;2024-03-08T04:34:13;101521.97;;;3.66;86.21
2549;BME280;1284;53.520;10.248;2024-03-08T04:36:39;101529.41;;;3.69;86.02
2549;BME280;1284;53.520;10.248;2024-03-08T04:39:05;101522.41;;;3.54;86.61
2549;BME280;1284;53.520;10.248;2024-03-08T04:41:31;101513.34;;;3.55;87.08
2549;BME280;1284;53.520;10.248;2024-03-08T04:43:59;101523.06;;;3.46;87.12
2549;BME280;1284;53.520;10.248;2024-03-08T04:46:26;101519.38;;;3.42;87.50
2549;BME280;1284;53.520;10.248;2024-03-08T04:48:54;101518.97;;;3.30;87.97
2549;BME280;1284;53.520;10.248;2024-03-08T04:51:21;101511.31;;;3.47;87.65
2549;BME280;1284;53.520;10.248;2024-03-08T04:53:47;101502.97;;;3.54;86.63
2549;BME280;1284;53.520;10.248;2024-03-08T04:56:13;101506.91;;;3.38;87.37
2549;BME280;1284;53.520;10.248;2024-03-08T04:58:39;101516.84;;;3.32;87.44
2549;BME280;1284;53.520;10.248;2024-03-08T05:01:05;101504.53;;;3.36;87.15
2549;BME280;1284;53.520;10.248;2024-03-08T05:03:30;101499.09;;;3.46;86.67
2549;BME280;1284;53.520;10.248;2024-03-08T05:05:56;101505.47;;;3.45;86.31
2549;BME280;1284;53.520;10.248;2024-03-08T05:08:22;101505.69;;;3.30;86.90
2549;BME280;1284;53.520;10.248;2024-03-08T05:10:48;101498.53;;;3.26;87.56
2549;BME280;1284;53.520;10.248;2024-03-08T05:13:14;101498.41;;;3.17;87.78
2549;BME280;1284;53.520;10.248;2024-03-08T05:15:42;101500.13;;;3.27;87.35
2549;BME280;1284;53.520;10.248;2024-03-08T05:18:08;101504.78;;;3.16;87.80
2549;BME280;1284;53.520;10.248;2024-03-08T05:20:36;101498.00;;;3.29;87.18
2549;BME280;1284;53.520;10.248;2024-03-08T05:23:02;101497.81;;;3.20;87.26
2549;BME280;1284;53.520;10.248;2024-03-08T05:25:28;101499.84;;;3.28;87.12
2549;BME280;1284;53.520;10.248;2024-03-08T05:27:54;101496.66;;;3.08;87.76
2549;BME280;1284;53.520;10.248;2024-03-08T05:30:20;101501.91;;;3.13;88.22
2549;BME280;1284;53.520;10.248;2024-03-08T05:32:47;101496.97;;;3.25;87.35
2549;BME280;1284;53.520;10.248;2024-03-08T05:35:13;101492.50;;;3.20;87.51
2549;BME280;1284;53.520;10.248;2024-03-08T05:37:41;101491.13;;;3.23;87.78
2549;BME280;1284;53.520;10.248;2024-03-08T05:40:10;101486.09;;;3.21;87.69
2549;BME280;1284;53.520;10.248;2024-03-08T05:42:36;101488.19;;;3.24;87.61
2549;BME280;1284;53.520;10.248;2024-03-08T05:45:05;101493.22;;;3.26;87.44
2549;BME280;1284;53.520;10.248;2024-03-08T05:47:36;101488.25;;;3.19;87.40
2549;BME280;1284;53.520;10.248;2024-03-08T05:50:02;101486.66;;;3.18;87.89
2549;BME280;1284;53.520;10.248;2024-03-08T05:52:29;101488.31;;;3.14;88.01
2549;BME280;1284;53.520;10.248;2024-03-08T05:54:55;101487.78;;;3.12;88.35
2549;BME280;1284;53.520;10.248;2024-03-08T05:57:21;101487.25;;;3.15;88.44
2549;BME280;1284;53.520;10.248;2024-03-08T05:59:49;101484.22;;;3.22;87.97
2549;BME280;1284;53.520;10.248;2024-03-08T06:02:15;101492.94;;;3.27;88.08
2549;BME280;1284;53.520;10.248;2024-03-08T06:04:46;101491.50;;;3.35;87.36
2549;BME280;1284;53.520;10.248;2024-03-08T06:07:12;101494.94;;;3.17;88.17
2549;BME280;1284;53.520;10.248;2024-03-08T06:09:38;101494.53;;;3.28;88.04
2549;BME280;1284;53.520;10.248;2024-03-08T06:12:04;101497.41;;;3.32;87.31
2549;BME280;1284;53.520;10.248;2024-03-08T06:14:31;101494.72;;;3.13;88.04
2549;BME280;1284;53.520;10.248;2024-03-08T06:16:57;101494.94;;;3.17;88.54
2549;BME280;1284;53.520;10.248;2024-03-08T06:19:23;101491.53;;;3.11;88.84
2549;BME280;1284;53.520;10.248;2024-03-08T06:21:49;101494.94;;;3.17;88.44
2549;BME280;1284;53.520;10.248;2024-03-08T06:24:14;101490.53;;;3.07;88.86
2549;BME280;1284;53.520;10.248;2024-03-08T06:26:40;101497.41;;;3.08;89.42
2549;BME280;1284;53.520;10.248;2024-03-08T06:29:06;101491.94;;;3.00;89.85
2549;BME280;1284;53.520;10.248;2024-03-08T06:31:34;101488.03;;;2.92;90.84
2549;BME280;1284;53.520;10.248;2024-03-08T06:34:04;101486.25;;;3.06;90.48
2549;BME280;1284;53.520;10.248;2024-03-08T06:36:33;101495.88;;;3.02;89.64
2549;BME280;1284;53.520;10.248;2024-03-08T06:38:59;101492.56;;;3.15;89.66
2549;BME280;1284;53.520;10.248;2024-03-08T06:41:24;101480.41;;;3.09;89.96
2549;BME280;1284;53.520;10.248;2024-03-08T06:43:50;101484.00;;;3.18;89.78
2549;BME280;1284;53.520;10.248;2024-03-08T06:46:17;101484.38;;;3.30;88.93
2549;BME280;1284;53.520;10.248;2024-03-08T06:48:43;101486.03;;;3.26;89.21
2549;BME280;1284;53.520;10.248;2024-03-08T06:51:11;101477.84;;;3.23;89.57
2549;BME280;1284;53.520;10.248;2024-03-08T06:53:37;101488.06;;;3.34;89.28
2549;BME280;1284;53.520;10.248;2024-03-08T06:56:04;101487.56;;;3.51;87.94
2549;BME280;1284;53.520;10.248;2024-03-08T06:58:29;101483.81;;;3.33;89.39
2549;BME280;1284;53.520;10.248;2024-03-08T07:00:55;101475.78;;;3.38;88.74
2549;BME280;1284;53.520;10.248;2024-03-08T07:03:23;101484.34;;;3.54;88.42
2549;BME280;1284;53.520;10.248;2024-03-08T07:05:49;101483.84;;;3.52;87.63
2549;BME280;1284;53.520;10.248;2024-03-08T07:08:15;101484.84;;;3.56;88.04
2549;BME280;1284;53.520;10.248;2024-03-08T07:10:42;101484.91;;;3.51;88.03
2549;BME280;1284;53.520;10.248;2024-03-08T07:13:10;101486.19;;;3.35;89.24
2549;BME280;1284;53.520;10.248;2024-03-08T07:15:36;101482.63;;;3.44;88.83
2549;BME280;1284;53.520;10.248;2024-03-08T07:18:02;101480.94;;;3.48;88.57
2549;BME280;1284;53.520;10.248;2024-03-08T07:20:28;101480.72;;;3.45;89.01
2549;BME280;1284;53.520;10.248;2024-03-08T07:22:55;101477.81;;;3.46;88.88
2549;BME280;1284;53.520;10.248;2024-03-08T07:25:20;101478.34;;;3.62;89.58
2549;BME280;1284;53.520;10.248;2024-03-08T07:27:56;101479.53;;;3.75;89.06
2549;BME280;1284;53.520;10.248;2024-03-08T07:30:23;101488.88;;;3.91;88.72
2549;BME280;1284;53.520;10.248;2024-03-08T07:33:07;101488.94;;;4.04;88.14
2549;BME280;1284;53.520;10.248;2024-03-08T07:35:33;101481.41;;;4.25;88.41
2549;BME280;1284;53.520;10.248;2024-03-08T07:38:08;101489.47;;;4.52;87.42
2549;BME280;1284;53.520;10.248;2024-03-08T07:40:36;101492.50;;;4.78;86.43
2549;BME280;1284;53.520;10.248;2024-03-08T07:43:03;101480.53;;;5.02;85.08
2549;BME280;1284;53.520;10.248;2024-03-08T07:45:29;101491.59;;;5.23;83.93
2549;BME280;1284;53.520;10.248;2024-03-08T07:47:55;101489.31;;;5.30;82.09
2549;BME280;1284;53.520;10.248;2024-03-08T07:50:22;101487.53;;;5.39;81.41
2549;BME280;1284;53.520;10.248;2024-03-08T07:52:49;101488.78;;;5.55;80.69
2549;BME280;1284;53.520;10.248;2024-03-08T07:55:14;101484.88;;;5.75;80.54
2549;BME280;1284;53.520;10.248;2024-03-08T07:57:40;101479.88;;;5.95;79.08
2549;BME280;1284;53.520;10.248;2024-03-08T08:00:06;101487.00;;;6.00;77.97
2549;BME280;1284;53.520;10.248;2024-03-08T08:02:36;101487.66;;;6.27;77.51
2549;BME280;1284;53.520;10.248;2024-03-08T08:05:02;101498.91;;;6.38;77.52
2549;BME280;1284;53.520;10.248;2024-03-08T08:07:29;101482.22;;;6.41;76.53
2549;BME280;1284;53.520;10.248;2024-03-08T08:09:54;101482.13;;;6.77;74.82
2549;BME280;1284;53.520;10.248;2024-03-08T08:12:20;101479.66;;;6.97;75.17
2549;BME280;1284;53.520;10.248;2024-03-08T08:14:46;101473.56;;;7.05;73.32
2549;BME280;1284;53.520;10.248;2024-03-08T08:17:12;101480.69;;;7.18;72.03
2549;BME280;1284;53.520;10.248;2024-03-08T08:19:37;101475.97;;;7.24;71.67
2549;BME280;1284;53.520;10.248;2024-03-08T08:22:04;101464.03;;;7.47;71.20
2549;BME280;1284;53.520;10.248;2024-03-08T08:24:30;101468.47;;;7.52;72.11
2549;BME280;1284;53.520;10.248;2024-03-08T08:26:56;101474.63;;;7.78;70.89
2549;BME280;1284;53.520;10.248;2024-03-08T08:29:22;101478.13;;;7.95;69.77
2549;BME280;1284;53.520;10.248;2024-03-08T08:31:48;101481.88;;;8.29;68.00
2549;BME280;1284;53.520;10.248;2024-03-08T08:34:18;101475.38;;;8.21;67.43
2549;BME280;1284;53.520;10.248;2024-03-08T08:36:44;101467.03;;;8.40;67.81
2549;BME280;1284;53.520;10.248;2024-03-08T08:39:10;101468.03;;;8.64;67.30
2549;BME280;1284;53.520;10.248;2024-03-08T08:41:39;101472.28;;;8.74;64.78
2549;BME280;1284;53.520;10.248;2024-03-08T08:44:07;101472.97;;;9.00;63.48
2549;BME280;1284;53.520;10.248;2024-03-08T08:46:36;101468.22;;;8.97;63.78
2549;BME280;1284;53.520;10.248;2024-03-08T08:49:03;101476.47;;;8.92;63.35
2549;BME280;1284;53.520;10.248;2024-03-08T08:51:29;101466.75;;;9.08;63.56
2549;BME280;1284;53.520;10.248;2024-03-08T08:53:55;101469.66;;;9.24;62.88
2549;BME280;1284;53.520;10.248;2024-03-08T08:56:21;101453.72;;;9.48;62.48
2549;BME280;1284;53.520;10.248;2024-03-08T08:58:47;101457.53;;;9.67;61.91
2549;BME280;1284;53.520;10.248;2024-03-08T09:01:14;101461.91;;;9.92;60.03
2549;BME280;1284;53.520;10.248;2024-03-08T09:03:40;101457.25;;;9.81;59.20
2549;BME280;1284;53.520;10.248;2024-03-08T09:06:12;101450.59;;;9.99;59.21
2549;BME280;1284;53.520;10.248;2024-03-08T09:08:42;101453.94;;;10.17;59.05
2549;BME280;1284;53.520;10.248;2024-03-08T09:11:09;101455.22;;;10.43;57.87
2549;BME280;1284;53.520;10.248;2024-03-08T09:13:35;101458.81;;;10.47;57.34
2549;BME280;1284;53.520;10.248;2024-03-08T09:16:02;101457.59;;;10.57;56.67
2549;BME280;1284;53.520;10.248;2024-03-08T09:18:30;101441.78;;;10.55;56.82
2549;BME280;1284;53.520;10.248;2024-03-08T09:20:58;101451.13;;;10.70;56.82
2549;BME280;1284;53.520;10.248;2024-03-08T09:23:23;101444.06;;;10.77;56.15
2549;BME280;1284;53.520;10.248;2024-03-08T09:25:50;101443.50;;;10.96;55.98
2549;BME280;1284;53.520;10.248;2024-03-08T09:28:17;101436.16;;;11.21;54.92
2549;BME280;1284;53.520;10.248;2024-03-08T09:30:42;101429.03;;;11.01;54.37
2549;BME280;1284;53.520;10.248;2024-03-08T09:33:08;101431.91;;;11.32;52.94
2549;BME280;1284;53.520;10.248;2024-03-08T09:35:34;101420.34;;;11.19;53.20
2549;BME280;1284;53.520;10.248;2024-03-08T09:38:02;101431.25;;;11.11;52.84
2549;BME280;1284;53.520;10.248;2024-03-08T09:40:30;101422.03;;;11.24;52.98
2549;BME280;1284;53.520;10.248;2024-03-08T09:42:56;101417.53;;;11.28;51.61
2549;BME280;1284;53.520;10.248;2024-03-08T09:45:23;101408.78;;;11.19;52.38
2549;BME280;1284;53.520;10.248;2024-03-08T09:47:49;101412.03;;;11.24;51.98
2549;BME280;1284;53.520;10.248;2024-03-08T09:50:15;101409.34;;;11.24;51.94
2549;BME280;1284;53.520;10.248;2024-03-08T09:52:46;101397.56;;;11.17;52.46
2549;BME280;1284;53.520;10.248;2024-03-08T09:55:12;101403.31;;;10.91;52.67
2549;BME280;1284;53.520;10.248;2024-03-08T09:57:38;101393.69;;;10.78;53.29
2549;BME280;1284;53.520;10.248;2024-03-08T10:00:05;101388.72;;;10.68;53.42
2549;BME280;1284;53.520;10.248;2024-03-08T10:02:48;101383.91;;;10.61;53.58
2549;BME280;1284;53.520;10.248;2024-03-08T10:05:15;101391.88;;;10.70;53.61
2549;BME280;1284;53.520;10.248;2024-03-08T10:07:40;101380.84;;;10.63;53.25
2549;BME280;1284;53.520;10.248;2024-03-08T10:10:06;101375.94;;;10.53;53.51
2549;BME280;1284;53.520;10.248;2024-03-08T10:12:37;101374.78;;;10.42;54.51
2549;BME280;1284;53.520;10.248;2024-03-08T10:15:05;101372.66;;;10.59;53.62
2549;BME280;1284;53.520;10.248;2024-03-08T10:17:30;101369.97;;;10.59;53.82
2549;BME280;1284;53.520;10.248;2024-03-08T10:19:57;101366.50;;;10.47;54.13
2549;BME280;1284;53.520;10.248;2024-03-08T10:22:25;101360.66;;;10.57;53.40
2549;BME280;1284;53.520;10.248;2024-03-08T10:24:51;101351.13;;;10.71;53.97
2549;BME280;1284;53.520;10.248;2024-03-08T10:27:20;101356.28;;;10.76;53.87
2549;BME280;1284;53.520;10.248;2024-03-08T10:29:47;101345.63;;;10.56;53.64
2549;BME280;1284;53.520;10.248;2024-03-08T10:32:13;101350.22;;;10.43;52.61
2549;BME280;1284;53.520;10.248;2024-03-08T10:34:38;101349.78;;;10.41;52.40
2549;BME280;1284;53.520;10.248;2024-03-08T10:37:05;101344.53;;;10.45;52.35
2549;BME280;1284;53.520;10.248;2024-03-08T10:39:36;101324.53;;;10.46;52.46
2549;BME280;1284;53.520;10.248;2024-03-08T10:42:05;101341.25;;;10.51;52.15
2549;BME280;1284;53.520;10.248;2024-03-08T10:44:40;101333.50;;;10.38;52.55
2549;BME280;1284;53.520;10.248;2024-03-08T10:47:26;101332.63;;;10.46;53.08
2549;BME280;1284;53.520;10.248;2024-03-08T10:50:02;101315.69;;;10.33;53.09
2549;BME280;1284;53.520;10.248;2024-03-08T10:52:33;101300.66;;;10.56;53.55
2549;BME280;1284;53.520;10.248;2024-03-08T10:55:01;101304.09;;;10.57;52.00
2549;BME280;1284;53.520;10.248;2024-03-08T10:57:27;101307.72;;;10.49;52.34
2549;BME280;1284;53.520;10.248;2024-03-08T10:59:53;101308.03;;;10.71;51.77
2549;BME280;1284;53.520;10.248;2024-03-08T11:02:19;101298.34;;;10.82;51.30
2549;BME280;1284;53.520;10.248;2024-03-08T11:04:50;101303.63;;;10.91;50.89
2549;BME280;1284;53.520;10.248;2024-03-08T11:07:16;101293.72;;;10.95;50.82
2549;BME280;1284;53.520;10.248;2024-03-08T11:09:47;101283.78;;;10.71;50.60
2549;BME280;1284;53.520;10.248;2024-03-08T11:12:42;101294.00;;;10.66;51.05
2549;BME280;1284;53.520;10.248;2024-03-08T11:15:12;101283.88;;;10.75;50.77
2549;BME280;1284;53.520;10.248;2024-03-08T11:17:50;101284.88;;;10.70;50.49
2549;BME280;1284;53.520;10.248;2024-03-08T11:20:20;101274.63;;;10.88;49.89
2549;BME280;1284;53.520;10.248;2024-03-08T11:22:53;101275.22;;;10.94;49.88
2549;BME280;1284;53.520;10.248;2024-03-08T11:25:40;101285.31;;;10.84;50.52
2549;BME280;1284;53.520;10.248;2024-03-08T11:28:19;101271.50;;;10.86;50.18
2549;BME280;1284;53.520;10.248;2024-03-08T11:33:28;101253.66;;;10.94;50.40
2549;BME280;1284;53.520;10.248;2024-03-08T11:36:03;101250.78;;;11.02;49.81
2549;BME280;1284;53.520;10.248;2024-03-08T11:38:43;101243.78;;;10.85;50.93
2549;BME280;1284;53.520;10.248;2024-03-08T11:41:17;101242.38;;;10.76;50.86
2549;BME280;1284;53.520;10.248;2024-03-08T11:43:43;101254.81;;;11.08;50.66
2549;BME280;1284;53.520;10.248;2024-03-08T11:46:09;101236.28;;;10.79;50.79
2549;BME280;1284;53.520;10.248;2024-03-08T11:48:35;101235.81;;;10.89;50.41
2549;BME280;1284;53.520;10.248;2024-03-08T11:51:03;101241.84;;;11.26;49.49
2549;BME280;1284;53.520;10.248;2024-03-08T11:53:31;101228.22;;;11.07;50.37
2549;BME280;1284;53.520;10.248;2024-03-08T11:56:09;101226.41;;;11.11;50.80
2549;BME280;1284;53.520;10.248;2024-03-08T11:58:36;101226.28;;;11.07;49.89
2549;BME280;1284;53.520;10.248;2024-03-08T12:01:06;101230.44;;;11.17;48.65
2549;BME280;1284;53.520;10.248;2024-03-08T12:03:33;101222.22;;;11.13;49.57
2549;BME280;1284;53.520;10.248;2024-03-08T12:06:02;101225.47;;;11.19;49.63
2549;BME280;1284;53.520;10.248;2024-03-08T12:08:30;101207.25;;;11.43;48.89
2549;BME280;1284;53.520;10.248;2024-03-08T12:10:56;101214.47;;;11.55;49.80
2549;BME280;1284;53.520;10.248;2024-03-08T12:13:32;101217.41;;;11.50;49.99
2549;BME280;1284;53.520;10.248;2024-03-08T12:15:59;101207.38;;;11.78;48.73
2549;BME280;1284;53.520;10.248;2024-03-08T12:18:26;101209.22;;;11.74;48.28
2549;BME280;1284;53.520;10.248;2024-03-08T12:21:07;101210.03;;;11.62;48.00
2549;BME280;1284;53.520;10.248;2024-03-08T12:23:34;101199.59;;;11.61;48.18
2549;BME280;1284;53.520;10.248;2024-03-08T12:26:29;101183.22;;;11.54;49.15
2549;BME280;1284;53.520;10.248;2024-03-08T12:29:18;101181.78;;;11.72;49.71
2549;BME280;1284;53.520;10.248;2024-03-08T12:31:46;101183.00;;;11.90;49.34
2549;BME280;1284;53.520;10.248;2024-03-08T12:34:13;101173.84;;;11.95;47.35
2549;BME280;1284;53.520;10.248;2024-03-08T12:36:50;101170.38;;;11.94;47.40
2549;BME280;1284;53.520;10.248;2024-03-08T12:39:19;101158.34;;;11.92;47.77
2549;BME280;1284;53.520;10.248;2024-03-08T12:41:52;101156.06;;;12.09;47.45
2549;BME280;1284;53.520;10.248;2024-03-08T12:44:18;101149.25;;;12.15;47.56
2549;BME280;1284;53.520;10.248;2024-03-08T12:46:47;101144.31;;;12.36;46.96
2549;BME280;1284;53.520;10.248;2024-03-08T12:49:14;101139.75;;;12.40;45.21
2549;BME280;1284;53.520;10.248;2024-03-08T12:51:46;101134.25;;;12.37;44.56
2549;BME280;1284;53.520;10.248;2024-03-08T12:54:11;101142.72;;;12.35;45.19
2549;BME280;1284;53.520;10.248;2024-03-08T12:56:37;101133.75;;;12.31;45.84
2549;BME280;1284;53.520;10.248;2024-03-08T12:59:04;101122.63;;;12.33;44.65
2549;BME280;1284;53.520;10.248;2024-03-08T13:01:30;101124.69;;;12.39;45.26
2549;BME280;1284;53.520;10.248;2024-03-08T13:03:59;101131.44;;;12.49;44.12
2549;BME280;1284;53.520;10.248;2024-03-08T13:06:27;101115.88;;;12.42;44.49
2549;BME280;1284;53.520;10.248;2024-03-08T13:08:55;101119.88;;;12.48;44.78
2549;BME280;1284;53.520;10.248;2024-03-08T13:11:21;101118.00;;;12.72;44.79
2549;BME280;1284;53.520;10.248;2024-03-08T13:13:47;101117.72;;;12.57;45.13